La Scie, Canada
Current Conditions -  °F | °C
As of 4:00 AM on Monday 22 Dec 2014 (Local Time) from CYQX Reporting Station
Overcast Overcast  
Wind Chill: 15°   Ceiling: 1300
Heat Index: 23°   Visibility: 20mi
Dew Point: 19°   Wind: 7mph
Humidity: 86%   Direction: 310°NW
Pressure: 30.34"   Gusts: NA
Location:  49.97°N, 55.58°W
Report Text: CYQX 220700Z 31006KT 20SM OVC013 M05/M07 A3034 RMK SC8 SLP283
Loading
Personal Weather Stations






























Interactive Weather Map New forecast layout! Learn more

10-Day Weather Forecast

Advertisements
Track Severe Weather on mobile